Time;durP1;ratioP1;P1;durP2;ratioP2;P2;SDS_P1;SDS_P2;PMS_P1;PMS_P2;Temp;Humidity;BMP_temperature;BMP_pressure;BME280_temperature;BME280_humidity;BME280_pressure;Samples;Min_cycle;Max_cycle;Signal;HPM_P1;HPM_P2
2023/02/20 00:03:15;;;;;;;;;22.50;22.50;;;;;;;;6489269;39;8894;-59
2023/02/20 00:09:37;;;;;;;;;31.25;25.25;;;;;;;;6488898;39;8958;-59
2023/02/20 00:15:57;;;;;;;;;30.25;25.75;;;;;;;;6489249;39;8977;-58
2023/02/20 00:22:32;;;;;;;;;28.25;25.25;;;;;;;;6488836;31;8991;-58
2023/02/20 00:28:50;;;;;;;;;24.75;19.50;;;;;;;;6489596;31;8871;-58
2023/02/20 00:35:18;;;;;;;;;16.00;14.00;;;;;;;;6487830;46;8977;-58
2023/02/20 00:41:36;;;;;;;;;21.50;19.75;;;;;;;;6488678;46;8807;-59
2023/02/20 00:47:52;;;;;;;;;19.50;17.75;;;;;;;;6488782;39;8979;-57
2023/02/20 00:54:09;;;;;;;;;19.00;17.00;;;;;;;;6488477;39;8910;-57
2023/02/20 01:00:32;;;;;;;;;14.75;14.75;;;;;;;;6488934;31;8922;-58
2023/02/20 01:06:48;;;;;;;;;23.25;18.25;;;;;;;;6487708;46;8945;-58
2023/02/20 01:12:56;;;;;;;;;19.00;16.50;;;;;;;;6489160;31;9000;-58
2023/02/20 01:19:30;;;;;;;;;17.25;16.75;;;;;;;;6488668;31;8886;-57
2023/02/20 01:25:38;;;;;;;;;18.75;17.50;;;;;;;;6488036;31;8948;-58
2023/02/20 01:31:59;;;;;;;;;16.75;14.25;;;;;;;;6487954;39;8953;-57
2023/02/20 01:38:37;;;;;;;;;20.25;17.00;;;;;;;;6488441;31;8923;-58
2023/02/20 01:45:42;;;;;;;;;19.75;16.50;;;;;;;;6487730;39;9019;-59
2023/02/20 01:52:13;;;;;;;;;16.00;14.25;;;;;;;;6488401;31;8958;-57
2023/02/20 01:58:55;;;;;;;;;23.00;20.75;;;;;;;;6487669;39;8881;-57
2023/02/20 02:05:17;;;;;;;;;29.00;24.33;;;;;;;;6487565;46;8868;-57
2023/02/20 02:11:26;;;;;;;;;19.75;19.75;;;;;;;;6488298;39;9579;-58
2023/02/20 02:18:15;;;;;;;;;9.50;9.50;;;;;;;;6489203;31;8991;-58
2023/02/20 02:25:02;;;;;;;;;4.75;4.25;;;;;;;;6486888;39;9062;-58
2023/02/20 02:32:26;;;;;;;;;4.50;4.00;;;;;;;;6486859;39;9003;-59
2023/02/20 02:39:02;;;;;;;;;2.00;2.00;;;;;;;;6519324;36;8879;-59
2023/02/20 02:45:59;;;;;;;;;1.25;1.25;;;;;;;;6487821;39;8911;-58
2023/02/20 02:52:37;;;;;;;;;3.00;1.25;;;;;;;;6487710;39;8959;-58
2023/02/20 02:58:50;;;;;;;;;2.00;2.00;;;;;;;;6488569;39;9699;-58
2023/02/20 03:05:24;;;;;;;;;3.50;1.75;;;;;;;;6489439;39;8904;-58
2023/02/20 03:11:55;;;;;;;;;2.00;2.00;;;;;;;;6489683;39;8999;-58
2023/02/20 03:18:33;;;;;;;;;1.75;1.75;;;;;;;;6506933;36;8871;-59
2023/02/20 03:25:13;;;;;;;;;2.50;2.50;;;;;;;;6488239;46;9037;-59
2023/02/20 03:45:30;;;;;;;;;4.00;4.00;;;;;;;;6488624;46;8870;-58
2023/02/20 03:51:47;;;;;;;;;7.00;4.75;;;;;;;;6489936;39;8984;-58
2023/02/20 03:58:14;;;;;;;;;6.75;5.25;;;;;;;;6488497;39;8941;-58
2023/02/20 04:04:37;;;;;;;;;8.00;6.50;;;;;;;;6490156;31;8854;-59
2023/02/20 04:11:24;;;;;;;;;5.00;4.00;;;;;;;;6488906;31;8898;-58
2023/02/20 04:18:09;;;;;;;;;9.25;9.25;;;;;;;;6489486;39;8905;-58
2023/02/20 04:24:57;;;;;;;;;8.00;8.00;;;;;;;;6488619;39;9586;-58
2023/02/20 04:31:17;;;;;;;;;4.50;4.50;;;;;;;;6489082;39;8940;-59
2023/02/20 04:37:50;;;;;;;;;8.75;7.25;;;;;;;;6488244;39;8993;-59
2023/02/20 04:44:38;;;;;;;;;6.00;5.00;;;;;;;;6488820;39;8894;-59
2023/02/20 04:50:56;;;;;;;;;12.00;10.50;;;;;;;;6488880;31;8985;-59
2023/02/20 04:57:21;;;;;;;;;11.25;11.00;;;;;;;;6489367;31;8948;-58
2023/02/20 05:03:33;;;;;;;;;10.50;9.00;;;;;;;;6471995;39;9739;-59
2023/02/20 05:09:37;;;;;;;;;11.00;9.50;;;;;;;;6491544;39;8859;-58
2023/02/20 05:15:39;;;;;;;;;7.50;7.50;;;;;;;;6492338;39;8896;-60
2023/02/20 05:28:07;;;;;;;;;14.25;10.75;;;;;;;;6492094;46;8844;-59
2023/02/20 05:34:09;;;;;;;;;11.00;11.00;;;;;;;;6488253;46;8928;-60
2023/02/20 05:40:12;;;;;;;;;5.50;4.25;;;;;;;;6490721;39;9701;-59
2023/02/20 05:46:15;;;;;;;;;10.75;10.75;;;;;;;;6492282;39;9054;-60
2023/02/20 05:52:19;;;;;;;;;11.00;8.25;;;;;;;;6490639;46;9040;-59
2023/02/20 05:58:21;;;;;;;;;9.25;9.25;;;;;;;;6491498;39;8799;-60
2023/02/20 06:04:23;;;;;;;;;12.25;11.00;;;;;;;;6491294;39;8978;-62
2023/02/20 06:10:27;;;;;;;;;8.00;7.00;;;;;;;;6490236;46;8966;-59
2023/02/20 06:16:31;;;;;;;;;10.00;10.00;;;;;;;;6490992;46;8896;-59
2023/02/20 06:22:33;;;;;;;;;10.00;9.25;;;;;;;;6489829;46;8986;-61
2023/02/20 06:28:36;;;;;;;;;11.00;9.50;;;;;;;;6490247;39;8840;-59
2023/02/20 06:34:39;;;;;;;;;14.50;14.25;;;;;;;;6491431;39;8890;-61
2023/02/20 06:40:41;;;;;;;;;11.25;9.25;;;;;;;;6490606;39;8910;-60
2023/02/20 06:46:44;;;;;;;;;9.25;9.25;;;;;;;;6491922;39;9488;-60
2023/02/20 06:52:47;;;;;;;;;11.50;11.50;;;;;;;;6490728;31;8902;-62
2023/02/20 06:58:50;;;;;;;;;11.00;11.00;;;;;;;;6492549;31;8823;-62
2023/02/20 07:04:53;;;;;;;;;12.75;11.00;;;;;;;;6489898;46;8970;-60
2023/02/20 07:10:56;;;;;;;;;14.75;13.75;;;;;;;;6489892;36;8962;-61
2023/02/20 07:16:58;;;;;;;;;15.50;14.00;;;;;;;;6488499;47;8887;-61
2023/02/20 07:23:00;;;;;;;;;16.50;15.25;;;;;;;;6489891;39;8945;-60
2023/02/20 07:29:03;;;;;;;;;15.50;14.25;;;;;;;;6487989;39;8951;-60
2023/02/20 07:35:07;;;;;;;;;13.50;13.50;;;;;;;;6488213;39;9014;-61
2023/02/20 07:41:14;;;;;;;;;23.75;18.75;;;;;;;;6488473;46;8947;-62
2023/02/20 07:47:16;;;;;;;;;18.50;15.50;;;;;;;;6484305;39;8876;-62
2023/02/20 07:53:20;;;;;;;;;41.50;36.25;;;;;;;;6485254;46;8947;-63
2023/02/20 07:59:23;;;;;;;;;39.00;35.00;;;;;;;;6487911;31;8958;-63
2023/02/20 08:05:27;;;;;;;;;21.50;20.50;;;;;;;;6486161;39;8987;-62
2023/02/20 08:11:38;;;;;;;;;22.50;19.25;;;;;;;;6484802;31;8919;-62
2023/02/20 08:17:43;;;;;;;;;33.75;32.50;;;;;;;;6485611;39;8974;-61
2023/02/20 08:23:48;;;;;;;;;68.75;56.75;;;;;;;;6486126;39;8931;-61
2023/02/20 08:29:51;;;;;;;;;16.50;14.00;;;;;;;;6486431;31;8915;-63
2023/02/20 08:35:54;;;;;;;;;22.00;16.00;;;;;;;;6488186;31;9164;-62
2023/02/20 08:41:56;;;;;;;;;47.00;41.50;;;;;;;;6488792;39;8983;-60
2023/02/20 08:48:00;;;;;;;;;48.50;39.75;;;;;;;;6488299;39;8974;-61
2023/02/20 08:54:03;;;;;;;;;21.25;18.25;;;;;;;;6488268;46;8962;-61
2023/02/20 09:00:05;;;;;;;;;37.00;33.50;;;;;;;;6488652;39;9049;-60
2023/02/20 09:06:07;;;;;;;;;31.00;26.75;;;;;;;;6486237;39;8977;-61
2023/02/20 09:12:13;;;;;;;;;37.00;33.50;;;;;;;;6487322;31;9038;-64
2023/02/20 09:18:17;;;;;;;;;31.75;27.25;;;;;;;;6486645;46;8899;-63
2023/02/20 09:24:20;;;;;;;;;16.00;13.50;;;;;;;;6486530;46;8938;-61
2023/02/20 09:30:26;;;;;;;;;12.75;12.75;;;;;;;;6497677;36;129706;-61
2023/02/20 09:36:29;;;;;;;;;18.50;16.00;;;;;;;;6487013;35;8979;-63
2023/02/20 09:43:12;;;;;;;;;28.50;24.75;;;;;;;;6487122;39;8966;-64
2023/02/20 09:49:28;;;;;;;;;18.00;13.75;;;;;;;;6486764;31;8993;-62
2023/02/20 09:55:37;;;;;;;;;20.25;18.50;;;;;;;;6486534;31;9045;-59
2023/02/20 10:02:03;;;;;;;;;15.00;14.00;;;;;;;;6485876;46;9002;-63
2023/02/20 10:08:09;;;;;;;;;16.00;13.75;;;;;;;;6488317;31;9054;-61
2023/02/20 10:14:33;;;;;;;;;19.00;15.25;;;;;;;;6488362;39;9083;-61
2023/02/20 10:20:36;;;;;;;;;28.50;23.00;;;;;;;;6487635;31;8957;-62
2023/02/20 10:26:45;;;;;;;;;11.50;11.50;;;;;;;;6487873;31;8963;-61
2023/02/20 10:32:56;;;;;;;;;78.50;59.75;;;;;;;;6482765;31;9089;-63
2023/02/20 10:39:07;;;;;;;;;15.00;14.50;;;;;;;;6484979;39;8959;-61
2023/02/20 10:45:26;;;;;;;;;15.25;13.50;;;;;;;;6485035;39;8928;-63
2023/02/20 10:51:38;;;;;;;;;18.00;16.50;;;;;;;;6485130;39;8950;-61
2023/02/20 10:58:09;;;;;;;;;16.75;16.75;;;;;;;;6484509;31;8948;-63
2023/02/20 11:04:22;;;;;;;;;21.75;18.50;;;;;;;;6484014;39;9026;-62
2023/02/20 11:10:26;;;;;;;;;14.75;13.25;;;;;;;;6484490;31;8916;-64
2023/02/20 11:17:19;;;;;;;;;21.75;17.75;;;;;;;;6485688;39;8952;-64
2023/02/20 11:23:43;;;;;;;;;18.25;16.00;;;;;;;;6486161;39;8985;-61
2023/02/20 11:29:59;;;;;;;;;18.50;17.50;;;;;;;;6486970;46;9054;-62
2023/02/20 11:36:22;;;;;;;;;22.25;15.25;;;;;;;;6485451;39;8994;-63
2023/02/20 11:42:32;;;;;;;;;14.00;12.25;;;;;;;;6486480;39;8922;-62
2023/02/20 11:48:36;;;;;;;;;14.50;11.25;;;;;;;;6484417;39;8975;-62
2023/02/20 11:54:44;;;;;;;;;39.75;35.75;;;;;;;;6485582;31;8967;-63
2023/02/20 12:00:50;;;;;;;;;88.50;71.75;;;;;;;;6484471;31;8985;-61
2023/02/20 12:06:53;;;;;;;;;19.00;19.00;;;;;;;;6485078;39;8948;-61
2023/02/20 12:12:56;;;;;;;;;32.00;25.50;;;;;;;;6485244;39;8998;-63
2023/02/20 12:19:24;;;;;;;;;18.25;15.50;;;;;;;;6484014;31;9050;-61
2023/02/20 12:25:35;;;;;;;;;23.75;22.75;;;;;;;;6485036;39;9106;-61
2023/02/20 12:31:47;;;;;;;;;20.25;20.00;;;;;;;;6485070;39;9687;-59
2023/02/20 12:38:04;;;;;;;;;21.75;20.50;;;;;;;;6484947;46;8990;-61
2023/02/20 12:44:19;;;;;;;;;20.25;19.75;;;;;;;;6485308;31;8965;-61
2023/02/20 12:50:27;;;;;;;;;63.00;51.25;;;;;;;;6482995;39;9017;-62
2023/02/20 12:56:58;;;;;;;;;41.50;38.50;;;;;;;;6484888;46;9073;-61
2023/02/20 13:03:19;;;;;;;;;38.75;36.00;;;;;;;;6485544;31;9182;-63
2023/02/20 13:09:36;;;;;;;;;20.25;18.25;;;;;;;;6485083;46;8986;-62
2023/02/20 13:16:12;;;;;;;;;17.50;16.75;;;;;;;;6484484;46;8935;-59
2023/02/20 13:22:16;;;;;;;;;19.50;19.25;;;;;;;;6487107;31;8924;-60
2023/02/20 13:28:46;;;;;;;;;17.25;15.75;;;;;;;;6486075;31;9603;-61
2023/02/20 13:34:50;;;;;;;;;18.75;17.75;;;;;;;;6486749;39;8939;-61
2023/02/20 13:40:55;;;;;;;;;30.75;25.75;;;;;;;;6484705;31;9095;-61
2023/02/20 13:46:59;;;;;;;;;35.50;33.75;;;;;;;;6485730;39;8931;-64
2023/02/20 13:53:02;;;;;;;;;24.75;24.00;;;;;;;;6486148;39;8984;-61
2023/02/20 13:59:13;;;;;;;;;15.00;15.00;;;;;;;;6485855;39;8982;-61
2023/02/20 14:05:21;;;;;;;;;12.00;10.75;;;;;;;;6485552;46;9006;-61
2023/02/20 14:11:36;;;;;;;;;10.75;10.75;;;;;;;;6485905;31;8974;-60
2023/02/20 14:17:41;;;;;;;;;14.75;14.00;;;;;;;;6486980;31;8948;-60
2023/02/20 14:23:48;;;;;;;;;17.25;14.50;;;;;;;;6486231;39;8912;-60
2023/02/20 14:30:06;;;;;;;;;51.25;40.25;;;;;;;;6484559;39;8938;-61
2023/02/20 14:36:24;;;;;;;;;18.50;15.75;;;;;;;;6488831;31;8943;-61
2023/02/20 14:42:27;;;;;;;;;13.00;11.00;;;;;;;;6488646;39;8940;-62
2023/02/20 14:48:33;;;;;;;;;16.50;12.75;;;;;;;;6489816;31;8926;-62
2023/02/20 14:54:41;;;;;;;;;12.50;9.75;;;;;;;;6489327;39;8948;-62
2023/02/20 15:00:44;;;;;;;;;16.25;13.25;;;;;;;;6490439;46;9011;-60
2023/02/20 15:06:50;;;;;;;;;59.50;48.25;;;;;;;;6491137;31;9150;-61
2023/02/20 15:13:05;;;;;;;;;25.00;19.00;;;;;;;;6490571;39;9007;-60
2023/02/20 15:19:20;;;;;;;;;12.75;11.50;;;;;;;;6490217;46;8966;-62
2023/02/20 15:25:30;;;;;;;;;18.25;16.25;;;;;;;;6489696;39;8920;-62
2023/02/20 15:31:38;;;;;;;;;15.75;14.00;;;;;;;;6489548;31;8976;-61
2023/02/20 15:37:42;;;;;;;;;15.00;13.75;;;;;;;;6490813;39;9059;-60
2023/02/20 15:43:50;;;;;;;;;19.00;17.75;;;;;;;;6489967;31;9004;-65
2023/02/20 15:49:55;;;;;;;;;19.25;16.50;;;;;;;;6489396;46;8883;-60
2023/02/20 15:56:01;;;;;;;;;24.75;22.00;;;;;;;;6490134;39;8922;-62
2023/02/20 16:02:08;;;;;;;;;27.75;25.00;;;;;;;;6489902;31;9009;-59
2023/02/20 16:08:11;;;;;;;;;20.75;20.00;;;;;;;;6489869;39;8963;-61
2023/02/20 16:14:15;;;;;;;;;4.75;2.00;;;;;;;;6489724;31;9133;-61
2023/02/20 16:20:24;;;;;;;;;28.25;24.75;;;;;;;;6489725;46;8880;-62
2023/02/20 16:26:29;;;;;;;;;30.00;25.50;;;;;;;;6490251;46;8846;-61
2023/02/20 16:32:32;;;;;;;;;33.00;30.25;;;;;;;;6490508;39;8942;-61
2023/02/20 16:38:34;;;;;;;;;19.25;17.00;;;;;;;;6490146;46;8872;-60
2023/02/20 16:44:43;;;;;;;;;31.25;27.50;;;;;;;;6490105;39;8876;-62
2023/02/20 16:50:51;;;;;;;;;42.00;36.25;;;;;;;;6510150;36;8968;-62
2023/02/20 16:56:54;;;;;;;;;27.25;22.75;;;;;;;;6489248;39;8938;-62
2023/02/20 17:02:56;;;;;;;;;24.75;23.50;;;;;;;;6490316;39;8941;-60
2023/02/20 17:09:01;;;;;;;;;35.25;29.00;;;;;;;;6489344;39;8865;-64
2023/02/20 17:15:06;;;;;;;;;29.75;28.75;;;;;;;;6490878;31;8936;-60
2023/02/20 17:21:09;;;;;;;;;32.00;27.50;;;;;;;;6489804;39;8988;-60
2023/02/20 17:27:15;;;;;;;;;31.75;31.25;;;;;;;;6491003;39;9903;-61
2023/02/20 17:33:22;;;;;;;;;34.00;29.00;;;;;;;;6490368;31;9476;-61
2023/02/20 17:39:27;;;;;;;;;27.25;24.25;;;;;;;;6489367;46;8903;-61
2023/02/20 17:45:31;;;;;;;;;33.00;27.25;;;;;;;;6489793;46;8834;-61
2023/02/20 17:51:33;;;;;;;;;30.50;24.00;;;;;;;;6489074;39;8903;-61
2023/02/20 17:57:37;;;;;;;;;28.50;21.00;;;;;;;;6489550;39;9635;-59
2023/02/20 18:03:40;;;;;;;;;32.75;32.75;;;;;;;;6488618;46;9040;-62
2023/02/20 18:09:43;;;;;;;;;31.25;26.25;;;;;;;;6488389;39;8910;-61
2023/02/20 18:15:45;;;;;;;;;28.50;23.75;;;;;;;;6489889;31;8929;-60
2023/02/20 18:21:48;;;;;;;;;27.75;25.75;;;;;;;;6488740;39;9614;-62
2023/02/20 18:27:51;;;;;;;;;39.00;33.25;;;;;;;;6488448;47;8881;-60
2023/02/20 18:33:55;;;;;;;;;34.50;31.50;;;;;;;;6489832;31;9023;-61
2023/02/20 18:39:58;;;;;;;;;29.25;29.25;;;;;;;;6488994;39;8892;-60
2023/02/20 18:46:00;;;;;;;;;34.25;30.50;;;;;;;;6489118;47;8878;-60
2023/02/20 18:52:03;;;;;;;;;29.00;28.00;;;;;;;;6488996;47;8957;-61
2023/02/20 18:58:06;;;;;;;;;22.00;18.25;;;;;;;;6488845;31;8921;-60
2023/02/20 19:04:10;;;;;;;;;13.50;13.25;;;;;;;;6489643;39;8889;-58
2023/02/20 19:10:20;;;;;;;;;16.00;14.00;;;;;;;;6488331;39;8924;-61
2023/02/20 19:16:24;;;;;;;;;14.50;14.25;;;;;;;;6489093;39;8991;-60
2023/02/20 19:22:28;;;;;;;;;15.25;14.50;;;;;;;;6489821;39;9038;-59
2023/02/20 19:28:33;;;;;;;;;15.50;13.50;;;;;;;;6489577;31;8865;-60
2023/02/20 19:34:35;;;;;;;;;15.00;13.00;;;;;;;;6489484;39;8934;-60
2023/02/20 19:40:37;;;;;;;;;11.50;10.50;;;;;;;;6490783;31;9036;-60
2023/02/20 19:46:39;;;;;;;;;12.50;10.00;;;;;;;;6491069;31;8850;-60
2023/02/20 19:52:42;;;;;;;;;18.75;11.75;;;;;;;;6490959;39;8849;-60
2023/02/20 19:58:45;;;;;;;;;14.75;12.00;;;;;;;;6490299;46;8866;-60
2023/02/20 20:04:47;;;;;;;;;12.00;9.75;;;;;;;;6490345;39;8921;-59
2023/02/20 20:10:51;;;;;;;;;9.25;8.00;;;;;;;;6489568;46;8928;-61
2023/02/20 20:16:54;;;;;;;;;12.75;11.75;;;;;;;;6490018;46;8842;-60
2023/02/20 20:23:00;;;;;;;;;12.00;12.00;;;;;;;;6489933;46;8862;-60
2023/02/20 20:29:05;;;;;;;;;10.00;9.50;;;;;;;;6491004;31;8892;-60
2023/02/20 20:35:07;;;;;;;;;9.00;9.00;;;;;;;;6490617;39;8905;-60
2023/02/20 20:41:10;;;;;;;;;11.50;10.25;;;;;;;;6490153;39;9012;-60
2023/02/20 20:47:13;;;;;;;;;12.25;12.25;;;;;;;;6490311;39;8841;-60
2023/02/20 20:53:16;;;;;;;;;9.00;9.00;;;;;;;;6490311;39;8861;-60
2023/02/20 20:59:19;;;;;;;;;7.25;6.50;;;;;;;;6489721;46;8904;-61
2023/02/20 21:05:24;;;;;;;;;12.50;11.50;;;;;;;;6489989;31;8942;-59
2023/02/20 21:11:27;;;;;;;;;15.00;11.50;;;;;;;;6489238;31;8854;-62
2023/02/20 21:17:31;;;;;;;;;14.75;13.00;;;;;;;;6489284;39;9497;-61
2023/02/20 21:23:33;;;;;;;;;11.75;10.00;;;;;;;;6488493;39;8884;-59
2023/02/20 21:29:36;;;;;;;;;13.50;13.50;;;;;;;;6488831;31;8882;-60
2023/02/20 21:35:39;;;;;;;;;13.00;13.00;;;;;;;;6489581;31;8862;-60
2023/02/20 21:48:03;;;;;;;;;12.25;12.25;;;;;;;;6488396;39;9646;-60
2023/02/20 21:54:05;;;;;;;;;12.25;11.50;;;;;;;;6489243;39;8892;-59
